Flight Track Log - Related Links

Times and Time Zones

All times are in EDT time to prevent confusion due to time zone crossing. See the AAY943 flight status page for this flight to view local times or setup timezone preferences in your user account.

Time Position Orientation Groundspeed Altitude Reporting Facility
EDT Latitude Longitude Course Direction KTS MPH feet Rate Location/Type
Fri 06:25:45 PM 38.0092 -84.6342 215° Southwest 146 168 3,000  Level Indianapolis Center
Fri 06:26:46 PM 37.9617 -84.6758 215° Southwest 164 189 4,500 2,293 Climbing Indianapolis Center
Fri 06:27:48 PM 37.9003 -84.7253 212° Southwest 221 254 7,700 2,780 Climbing Indianapolis Center
Fri 06:28:49 PM 37.8406 -84.7844 218° Southwest 261 300 10,200 2,439 Climbing Indianapolis Center
Fri 06:29:51 PM 37.7783 -84.8567 223° Southwest 294 338 12,700 2,371 Climbing Indianapolis Center
Fri 06:30:53 PM 37.7169 -84.9269 222° Southwest 297 342 15,100 2,195 Climbing Indianapolis Center
Fri 06:31:54 PM 37.6528 -85.0014 223° Southwest 311 358 17,200 1,561 Climbing Indianapolis Center
Fri 06:32:56 PM 37.5839 -85.0831 223° Southwest 333 383 18,300 1,220 Climbing Indianapolis Center
Fri 06:33:57 PM 37.4703 -85.1250 196° South 389 448 19,700 1,512 Climbing Indianapolis Center
Fri 06:34:59 PM 37.3628 -85.0833 163° South 406 467 21,400 1,561 Climbing Indianapolis Center
Fri 06:36:00 PM 37.2636 -85.0047 148° Southeast 421 484 22,900 780 Climbing Indianapolis Center
Fri 06:37:02 PM 37.1639 -84.9183 145° Southeast 432 497 23,000 97 Climbing Indianapolis Center
Fri 06:38:04 PM 37.0639 -84.8319 145° Southeast 436 502 23,100 976 Climbing Indianapolis Center
Fri 06:39:05 PM 36.9656 -84.7508 147° Southeast 436 502 25,000 1,561 Climbing Indianapolis Center
Fri 06:40:07 PM 36.8664 -84.6706 147° Southeast 426 490 26,300 1,366 Climbing Indianapolis Center
Fri 06:41:08 PM 36.7475 -84.5753 147° Southeast 423 487 27,800 1,268 Climbing Indianapolis Center
Fri 06:42:10 PM 36.6494 -84.4967 147° Southeast 424 488 28,900 1,024 Climbing Indianapolis Center
Fri 06:43:11 PM 36.5528 -84.4153 146° Southeast 422 486 29,900 1,024 Climbing Indianapolis Center
Fri 06:44:13 PM 36.4531 -84.3339 147° Southeast 419 482 31,000 919 Climbing Indianapolis Center
Fri 06:45:15 PM 36.3542 -84.2536 147° Southeast 421 484 31,800 732 Climbing Indianapolis Center
Fri 06:46:16 PM 36.2561 -84.1767 148° Southeast 417 480 32,500 585 Climbing Indianapolis Center
Fri 06:47:18 PM 36.1589 -84.0972 147° Southeast 416 479 33,000 244 Climbing Indianapolis Center
Fri 06:48:19 PM 36.0603 -84.0183 147° Southeast 418 481 33,000  Level Indianapolis Center
Fri 06:49:21 PM 35.9619 -83.9403 147° Southeast 419 482 33,000  Level Indianapolis Center
Fri 06:50:29 PM 35.8392 -83.8747 157° South 417 480 33,000  Level Atlanta Center
Fri 06:51:29 PM 35.7264 -83.8417 167° South 410 472 33,000  Level Atlanta Center
Fri 06:52:29 PM 35.6139 -83.8139 169° South 410 472 33,000  Level Atlanta Center
Fri 06:53:29 PM 35.5011 -83.7811 167° South 415 478 33,000  Level Atlanta Center
Fri 06:54:29 PM 35.3800 -83.7408 165° South 410 472 33,000  Level Atlanta Center
Fri 06:55:29 PM 35.2692 -83.7081 166° South 410 472 33,000  Level Atlanta Center
Fri 06:56:29 PM 35.1544 -83.6756 167° South 410 472 33,000  Level Atlanta Center
Fri 06:57:29 PM 35.0436 -83.6456 168° South 410 472 33,000  Level Atlanta Center
Fri 06:58:30 PM 34.9308 -83.6106 166° South 410 472 33,000  Level Atlanta Center
Fri 06:59:29 PM 34.8203 -83.5758 166° South 410 472 33,000  Level Atlanta Center
Fri 07:00:29 PM 34.7075 -83.5461 168° South 415 478 33,000  Level Atlanta Center
Fri 07:01:29 PM 34.5944 -83.5114 166° South 415 478 33,000  Level Atlanta Center
Fri 07:02:29 PM 34.4839 -83.4769 166° South 420 483 33,000  Level Atlanta Center
Fri 07:03:29 PM 34.3667 -83.4422 166° South 415 478 33,000  Level Atlanta Center
Fri 07:04:30 PM 34.2664 -83.4128 166° South 415 478 33,000  Level Atlanta Center
Fri 07:05:30 PM 34.1514 -83.3836 168° South 421 484 33,000  Level Atlanta Center
Fri 07:06:29 PM 34.0364 -83.3494 166° South 427 491 33,000  Level Atlanta Center
Fri 07:07:30 PM 33.9194 -83.3153 166° South 427 491 33,000  Level Atlanta Center
Fri 07:08:29 PM 33.8125 -83.2511 153° Southeast 435 501 33,000  Level Atlanta Center
Fri 07:09:29 PM 33.7014 -83.1747 150° Southeast 424 488 33,000  Level Atlanta Center
Fri 07:10:30 PM 33.5944 -83.1036 151° Southeast 435 501 33,000 250 Level Atlanta Center
Fri 07:11:29 PM 33.4875 -83.0325 151° Southeast 441 507 33,500 504 Climbing Atlanta Center
Fri 07:12:29 PM 33.3844 -82.9617 150° Southeast 436 502 34,000 248 Climbing Atlanta Center
Fri 07:13:30 PM 33.2775 -82.8958 153° Southeast 436 502 34,000  Level Atlanta Center
Fri 07:14:29 PM 33.1706 -82.8328 154° Southeast 431 496 34,000  Level Atlanta Center
Fri 07:15:29 PM 33.0614 -82.7797 158° South 426 490 34,000  Level Atlanta Center
Fri 07:16:29 PM 32.9503 -82.7294 159° South 426 490 34,000  Level Atlanta Center
Fri 07:17:29 PM 32.8389 -82.6742 157° South 426 490 34,000  Level Atlanta Center
Fri 07:18:29 PM 32.7236 -82.6167 157° South 436 502 34,000  Level Atlanta Center
Fri 07:19:29 PM 32.6122 -82.5667 159° South 436 502 34,000  Level Atlanta Center
Fri 07:21:51 PM 32.3558 -82.4400 157° South 435 501 34,000  Level Jacksonville Center
Fri 07:22:51 PM 32.2450 -82.3889 159° South 435 501 34,000  Level Jacksonville Center
Fri 07:23:52 PM 32.1256 -82.3308 158° South 435 501 34,000  Level Jacksonville Center
Fri 07:24:51 PM 32.0083 -82.2800 160° South 441 507 34,000  Level Jacksonville Center
Fri 07:25:52 PM 31.8828 -82.2222 159° South 447 514 34,000  Level Jacksonville Center
Fri 07:26:52 PM 31.7742 -82.1717 158° South 456 525 34,000  Level Jacksonville Center
Fri 07:27:52 PM 31.6464 -82.1092 157° South 450 518 34,000 -50 Level Jacksonville Center
Fri 07:28:51 PM 31.5417 -82.0614 159° South 450 518 33,900  Descending Jacksonville Center
Fri 07:29:51 PM 31.4222 -82.0064 159° South 450 518 34,000  Climbing Jacksonville Center
Fri 07:30:51 PM 31.3050 -81.9564 160° South 450 518 33,900 -50 Descending Jacksonville Center
Fri 07:31:51 PM 31.1919 -81.9067 159° South 450 518 33,900  Level Jacksonville Center
Fri 07:32:52 PM 31.0744 -81.8472 157° South 450 518 33,900  Level Jacksonville Center
Fri 07:33:52 PM 30.9569 -81.7953 159° South 450 518 33,900  Level Jacksonville Center
Fri 07:34:51 PM 30.8397 -81.7383 157° South 450 518 33,900  Level Jacksonville Center
Fri 07:35:51 PM 30.7222 -81.6867 159° South 450 518 33,900  Level Jacksonville Center
Fri 07:36:51 PM 30.6069 -81.6303 157° South 455 524 33,900  Level Jacksonville Center
Fri 07:37:51 PM 30.4872 -81.5764 159° South 455 524 33,900  Level Jacksonville Center
Fri 07:38:51 PM 30.3656 -81.5228 159° South 455 524 33,900  Level Jacksonville Center
Fri 07:39:51 PM 30.2439 -81.4717 160° South 455 524 33,900  Level Jacksonville Center
Fri 07:40:51 PM 30.1119 -81.4256 163° South 455 524 33,900  Level Jacksonville Center
Fri 07:41:51 PM 29.9881 -81.3769 161° South 460 529 33,900  Level Jacksonville Center
Fri 07:42:51 PM 29.8667 -81.3308 162° South 460 529 33,900  Level Jacksonville Center
Fri 07:43:52 PM 29.7489 -81.2756 158° South 465 535 33,900  Level Jacksonville Center
Fri 07:44:51 PM 29.6414 -81.1983 148° Southeast 460 529 33,900 31 Level Jacksonville Center
Fri 07:47:04 PM 29.4192 -81.0128 144° Southeast 453 521 34,000  Climbing Miami Center
Fri 07:48:04 PM 29.3150 -80.9328 146° Southeast 453 521 33,900 -50 Descending Miami Center
Fri 07:49:04 PM 29.2089 -80.8575 148° Southeast 453 521 33,900  Level Miami Center
Fri 07:50:04 PM 29.0958 -80.7894 152° Southeast 448 516 33,900  Level Miami Center
Fri 07:51:04 PM 28.9872 -80.7261 153° Southeast 448 516 33,900 50 Level Miami Center
Fri 07:52:04 PM 28.8803 -80.6656 154° Southeast 441 507 34,000 50 Climbing Miami Center
Fri 07:53:04 PM 28.7797 -80.6028 151° Southeast 441 507 34,000  Level Miami Center
Fri 07:54:04 PM 28.6708 -80.5425 154° Southeast 441 507 34,000  Level Miami Center
Fri 07:55:04 PM 28.5514 -80.4747 154° Southeast 441 507 34,000  Level Miami Center
Fri 07:56:04 PM 28.4425 -80.4122 153° Southeast 441 507 34,000  Level Miami Center
Fri 07:57:04 PM 28.3375 -80.3522 153° Southeast 435 501 34,000  Level Miami Center
Fri 07:58:04 PM 28.2364 -80.3044 157° South 440 506 34,000  Level Miami Center
Fri 07:59:04 PM 28.1228 -80.2561 159° South 440 506 34,000  Level Miami Center
Fri 08:00:04 PM 27.9986 -80.2053 160° South 435 501 34,000  Level Miami Center
Fri 08:01:04 PM 27.8850 -80.1550 159° South 435 501 34,000 -150 Level Miami Center
Fri 08:02:04 PM 27.7692 -80.1072 160° South 440 506 33,700 -1,150 Descending Miami Center
Fri 08:03:04 PM 27.6533 -80.0639 162° South 440 506 31,700 -2,050 Descending Miami Center
Fri 08:04:04 PM 27.5436 -80.0189 160° South 435 501 29,600 -2,100 Descending Miami Center
Fri 08:05:04 PM 27.4361 -79.9736 160° South 429 494 27,500 -2,100 Descending Miami Center
Fri 08:06:04 PM 27.3325 -79.9264 158° South 422 486 25,400 -1,800 Descending Miami Center
Fri 08:07:04 PM 27.2269 -79.8864 161° South 412 474 23,900 -1,100 Descending Miami Center
Fri 08:08:04 PM 27.1464 -79.8469 156° South 376 433 23,200 -1,300 Descending Miami Center
Fri 08:09:04 PM 27.0489 -79.8094 161° South 366 421 21,300 -2,000 Descending Miami Center
Fri 08:10:04 PM 26.9517 -79.7672 159° South 356 410 19,200 -1,900 Descending Miami Center
Fri 08:11:04 PM 26.8625 -79.7278 158° South 351 404 17,500 -1,750 Descending Miami Center
Fri 08:12:04 PM 26.7756 -79.6956 162° South 336 387 15,700 -1,950 Descending Miami Center
Fri 08:13:04 PM 26.6853 -79.7142 190° South 318 366 13,600 -1,950 Descending Miami Center
Fri 08:14:04 PM 26.6011 -79.7539 203° Southwest 324 373 11,800 -1,750 Descending Miami Center
Fri 08:15:04 PM 26.5186 -79.7961 205° Southwest 334 384 10,100 -1,750 Descending Miami Center
Fri 08:16:04 PM 26.4450 -79.8314 203° Southwest 311 358 8,300 -1,050 Descending Miami Center
Fri 08:17:04 PM 26.3711 -79.8689 204° Southwest 295 339 8,000 -750 Descending Miami Center
Fri 08:18:04 PM 26.3092 -79.9253 219° Southwest 295 339 6,800 -1,050 Descending Miami Center
Fri 08:19:04 PM 26.2558 -79.9864 226° Southwest 289 333 5,900 -450 Descending Miami Center
Fri 08:20:04 PM 26.1961 -80.0406 219° Southwest 284 327 5,900 -300 Level Miami Center
Fri 08:21:04 PM 26.1589 -80.1158 241° Southwest 279 321 5,300 -1,147 Descending Miami Center
Fri 08:22:20 PM 26.1481 -80.2289 264° West 285 328 3,300 -1,489 Descending Miami Center
Fri 08:23:21 PM 26.1481 -80.3122 270° West 269 310 1,900 -609 Descending Miami Center
Fri 08:24:28 PM 26.1097 -80.3528 224° Southwest 168 193 2,000 -49 Climbing Miami Center
Fri 08:25:23 PM 26.0789 -80.3219 138° Southeast 163 188 1,800 -109 Descending Miami Center
Fri 08:26:18 PM 26.0736 -80.2800 98° East 160 184 1,800 -344 Level Miami Center
Fri 08:27:25 PM 26.0747 -80.2361 88° East 116 133 1,100 -609 Descending Miami Center
Fri 08:28:26 PM 26.0736 -80.1967 92° East 125 144 500 -590 Descending Miami Center
Fri 08:30:00 PM 26.0667 -80.1500 103° East  Level FlightAware Approximate

Login

Don't have an account? Register now (free) for customized features, flight alerts, and more!